createdAt,value
2024-03-05T00:00:17.914Z,9.10
2024-03-05T00:04:26.462Z,9.10
2024-03-05T00:08:29.881Z,9.10
2024-03-05T00:12:33.750Z,9.10
2024-03-05T00:16:38.405Z,9.10
2024-03-05T00:20:45.896Z,9.10
2024-03-05T00:24:49.184Z,9.10
2024-03-05T00:28:52.595Z,9.10
2024-03-05T00:32:57.254Z,9.10
2024-03-05T00:37:06.018Z,9.10
2024-03-05T00:41:09.261Z,9.10
2024-03-05T00:45:13.694Z,9.10
2024-03-05T00:49:19.276Z,9.10
2024-03-05T00:59:49.646Z,9.20
2024-03-05T01:03:53.405Z,9.10
2024-03-05T01:07:58.222Z,9.10
2024-03-05T01:12:02.295Z,9.10
2024-03-05T01:16:06.537Z,9.10
2024-03-05T01:20:16.991Z,9.10
2024-03-05T01:24:22.880Z,9.10
2024-03-05T01:28:31.170Z,9.10
2024-03-05T01:32:35.700Z,9.10
2024-03-05T01:36:39.591Z,9.10
2024-03-05T01:40:44.699Z,9.10
2024-03-05T01:45:14.665Z,9.10
2024-03-05T01:49:19.148Z,9.10
2024-03-05T01:53:22.443Z,9.10
2024-03-05T01:57:32.556Z,9.10
2024-03-05T02:01:36.653Z,9.10
2024-03-05T02:05:43.555Z,9.10
2024-03-05T02:09:47.090Z,9.10
2024-03-05T02:13:51.849Z,9.10
2024-03-05T02:17:55.927Z,9.10
2024-03-05T02:22:03.606Z,9.10
2024-03-05T02:26:07.991Z,9.10
2024-03-05T02:30:12.496Z,9.10
2024-03-05T02:34:16.070Z,9.10
2024-03-05T02:38:46.018Z,9.10
2024-03-05T02:42:49.317Z,9.10
2024-03-05T02:46:52.905Z,9.10
2024-03-05T02:50:56.428Z,9.10
2024-03-05T02:55:31.798Z,9.10
2024-03-05T02:59:35.225Z,9.10
2024-03-05T03:03:38.860Z,9.10
2024-03-05T03:07:42.200Z,9.10
2024-03-05T03:11:49.736Z,9.10
2024-03-05T03:15:53.044Z,9.10
2024-03-05T03:19:56.410Z,9.10
2024-03-05T03:23:59.722Z,9.10
2024-03-05T03:28:35.907Z,9.10
2024-03-05T03:32:39.244Z,9.10
2024-03-05T03:36:43.981Z,9.10
2024-03-05T03:40:47.293Z,9.10
2024-03-05T03:44:52.277Z,9.10
2024-03-05T03:48:56.538Z,9.10
2024-03-05T03:52:59.819Z,9.10
2024-03-05T03:57:03.402Z,9.10
2024-03-05T04:01:08.756Z,9.10
2024-03-05T04:05:12.621Z,9.10
2024-03-05T04:09:21.886Z,9.10
2024-03-05T04:13:25.252Z,9.10
2024-03-05T04:17:29.964Z,9.10
2024-03-05T04:21:33.197Z,9.10
2024-03-05T04:26:09.688Z,9.10
2024-03-05T04:30:14.582Z,9.10
2024-03-05T04:34:20.560Z,9.10
2024-03-05T04:38:24.033Z,9.10
2024-03-05T04:42:57.008Z,9.10
2024-03-05T04:47:00.441Z,9.10
2024-03-05T04:51:05.156Z,9.10
2024-03-05T04:55:09.530Z,9.10
2024-03-05T04:59:12.852Z,9.10
2024-03-05T05:03:16.108Z,9.10
2024-03-05T05:07:24.365Z,9.10
2024-03-05T05:11:27.805Z,9.10
2024-03-05T05:15:34.954Z,9.20
2024-03-05T05:19:38.259Z,9.10
2024-03-05T05:23:42.894Z,9.10
2024-03-05T05:27:46.141Z,9.10
2024-03-05T05:31:49.455Z,9.10
2024-03-05T05:35:53.009Z,9.10
2024-03-05T05:39:58.271Z,9.10
2024-03-05T05:44:01.773Z,9.10
2024-03-05T05:48:05.795Z,9.10
2024-03-05T05:52:10.194Z,9.10
2024-03-05T05:56:17.205Z,9.10
2024-03-05T06:00:34.965Z,9.00
2024-03-05T06:04:38.854Z,9.00
2024-03-05T06:08:42.131Z,9.00
2024-03-05T06:12:47.322Z,9.00
2024-03-05T06:16:50.823Z,9.00
2024-03-05T06:20:54.178Z,9.00
2024-03-05T06:24:59.577Z,9.00
2024-03-05T06:29:07.817Z,9.00
2024-03-05T06:33:13.929Z,9.00
2024-03-05T06:37:17.444Z,9.00
2024-03-05T06:41:20.823Z,9.00
2024-03-05T06:45:29.016Z,9.00
2024-03-05T06:49:39.535Z,9.00
2024-03-05T06:54:26.263Z,9.00
2024-03-05T06:58:29.554Z,9.00
2024-03-05T07:02:34.665Z,9.00
2024-03-05T07:06:37.945Z,9.00
2024-03-05T07:11:32.197Z,9.00
2024-03-05T07:15:35.502Z,9.00
2024-03-05T07:19:40.175Z,9.00
2024-03-05T07:23:45.318Z,9.00
2024-03-05T07:27:49.569Z,8.90
2024-03-05T07:31:52.849Z,8.90
2024-03-05T07:35:57.946Z,8.80
2024-03-05T07:40:10.495Z,8.70
2024-03-05T07:44:13.775Z,8.70
2024-03-05T07:48:17.321Z,8.60
2024-03-05T07:52:22.164Z,8.60
2024-03-05T07:56:25.558Z,8.50
2024-03-05T08:00:28.874Z,8.50
2024-03-05T08:04:32.169Z,8.50
2024-03-05T08:08:36.892Z,8.40
2024-03-05T08:12:43.309Z,8.30
2024-03-05T08:16:46.633Z,8.30
2024-03-05T08:20:53.842Z,8.20
2024-03-05T08:24:58.514Z,8.20
2024-03-05T08:29:02.345Z,8.10
2024-03-05T08:33:06.520Z,8.10
2024-03-05T08:38:04.456Z,8.00
2024-03-05T08:42:09.170Z,7.90
2024-03-05T08:46:12.650Z,8.10
2024-03-05T08:50:16.875Z,8.00
2024-03-05T08:54:20.319Z,7.90
2024-03-05T08:58:30.385Z,7.90
2024-03-05T09:02:33.780Z,7.80
2024-03-05T09:06:37.092Z,7.80
2024-03-05T09:10:41.117Z,7.80
2024-03-05T09:14:49.315Z,7.70
2024-03-05T09:18:52.565Z,7.70
2024-03-05T09:22:56.105Z,7.70
2024-03-05T09:27:00.466Z,7.60
2024-03-05T09:31:05.696Z,7.60
2024-03-05T09:35:16.920Z,7.60
2024-03-05T09:39:21.979Z,7.60
2024-03-05T09:43:27.888Z,7.60
2024-03-05T09:48:01.872Z,7.50
2024-03-05T09:52:06.110Z,7.50
2024-03-05T09:56:09.913Z,7.50
2024-03-05T10:00:19.130Z,7.50
2024-03-05T10:04:50.508Z,7.50
2024-03-05T10:08:55.282Z,7.50
2024-03-05T10:12:58.546Z,7.50
2024-03-05T10:17:03.380Z,7.50
2024-03-05T10:21:20.052Z,7.50
2024-03-05T10:25:25.167Z,7.50
2024-03-05T10:29:36.083Z,7.50
2024-03-05T10:33:39.351Z,7.50
2024-03-05T10:37:44.082Z,7.50
2024-03-05T10:41:54.936Z,7.50
2024-03-05T10:45:58.300Z,7.50
2024-03-05T10:50:01.957Z,7.50
2024-03-05T10:54:10.666Z,7.50
2024-03-05T10:58:59.222Z,7.50
2024-03-05T11:03:08.796Z,7.50
2024-03-05T11:07:13.656Z,7.50
2024-03-05T11:12:32.039Z,7.50
2024-03-05T11:16:38.722Z,7.50
2024-03-05T11:21:08.555Z,7.50
2024-03-05T11:25:32.490Z,7.50
2024-03-05T11:30:01.806Z,7.50
2024-03-05T11:34:15.012Z,7.50
2024-03-05T11:38:20.353Z,7.50
2024-03-05T11:42:24.581Z,7.50
2024-03-05T11:46:56.011Z,7.60
2024-03-05T11:51:04.915Z,7.60
2024-03-05T11:55:10.794Z,7.60
2024-03-05T11:59:16.329Z,7.60
2024-03-05T12:03:20.854Z,7.60
2024-03-05T12:07:26.983Z,7.70
2024-03-05T12:11:30.310Z,7.70
2024-03-05T12:15:36.351Z,7.70
2024-03-05T12:19:39.631Z,7.70
2024-03-05T12:23:46.633Z,7.70
2024-03-05T12:27:50.622Z,7.70
2024-03-05T12:31:53.980Z,7.70
2024-03-05T12:35:59.484Z,7.60
2024-03-05T12:40:08.931Z,7.70
2024-03-05T12:44:12.420Z,7.60
2024-03-05T12:48:15.776Z,7.70
2024-03-05T12:52:21.406Z,7.60
2024-03-05T12:56:27.265Z,7.60
2024-03-05T13:00:35.585Z,7.60
2024-03-05T13:04:38.900Z,7.60
2024-03-05T13:08:42.757Z,7.60
2024-03-05T13:12:47.446Z,7.60
2024-03-05T13:16:50.962Z,7.60
2024-03-05T13:20:57.181Z,7.60
2024-03-05T13:25:01.068Z,7.60
2024-03-05T13:29:05.766Z,7.60
2024-03-05T13:33:10.643Z,7.60
2024-03-05T13:37:13.908Z,7.60
2024-03-05T13:41:21.264Z,7.60
2024-03-05T13:45:31.610Z,7.60
2024-03-05T13:49:36.029Z,7.60
2024-03-05T13:53:44.322Z,7.60
2024-03-05T13:57:50.177Z,7.60
2024-03-05T14:01:57.015Z,7.70
2024-03-05T14:06:00.593Z,7.60
2024-03-05T14:10:05.295Z,7.60
2024-03-05T14:14:08.878Z,7.60
2024-03-05T14:18:18.439Z,7.50
2024-03-05T14:22:21.865Z,7.40
2024-03-05T14:26:28.825Z,7.40
2024-03-05T14:30:32.839Z,7.50
2024-03-05T14:34:37.601Z,7.40
2024-03-05T14:38:41.331Z,7.40
2024-03-05T14:42:45.153Z,7.40
2024-03-05T14:46:49.807Z,7.30
2024-03-05T14:50:54.823Z,7.30
2024-03-05T14:55:00.171Z,7.20
2024-03-05T14:59:08.024Z,7.20
2024-03-05T15:03:11.400Z,7.20
2024-03-05T15:07:19.638Z,7.20
2024-03-05T15:11:26.959Z,7.20
2024-03-05T15:15:32.282Z,7.10
2024-03-05T15:19:36.086Z,7.10
2024-03-05T15:23:40.708Z,7.10
2024-03-05T15:28:12.493Z,7.10
2024-03-05T15:32:20.015Z,7.10
2024-03-05T15:36:48.474Z,7.10
2024-03-05T15:40:55.172Z,7.10
2024-03-05T15:44:58.434Z,7.00
2024-03-05T15:49:06.803Z,7.10
2024-03-05T15:53:10.162Z,7.10
2024-03-05T15:57:20.996Z,7.10
2024-03-05T16:01:27.070Z,7.10
2024-03-05T16:05:39.466Z,7.10
2024-03-05T16:09:51.580Z,7.10
2024-03-05T16:14:01.117Z,7.00
2024-03-05T16:18:07.720Z,7.10
2024-03-05T16:22:11.350Z,7.00
2024-03-05T16:26:16.969Z,7.00
2024-03-05T16:30:26.253Z,7.00
2024-03-05T16:34:32.739Z,7.00
2024-03-05T16:38:37.177Z,7.00
2024-03-05T16:42:42.667Z,7.00
2024-03-05T16:46:47.826Z,7.00
2024-03-05T16:50:51.250Z,7.00
2024-03-05T16:55:00.376Z,7.00
2024-03-05T16:59:06.035Z,6.90
2024-03-05T17:03:12.789Z,6.90
2024-03-05T17:07:16.300Z,6.90
2024-03-05T17:11:21.694Z,6.90
2024-03-05T17:15:30.938Z,6.90
2024-03-05T17:19:35.596Z,6.80
2024-03-05T17:23:43.597Z,6.80
2024-03-05T17:27:47.987Z,6.90
2024-03-05T17:31:51.318Z,6.80
2024-03-05T17:35:58.429Z,6.80
2024-03-05T17:40:02.333Z,6.80
2024-03-05T17:44:10.316Z,6.80
2024-03-05T17:48:14.000Z,6.80
2024-03-05T17:52:19.252Z,6.80
2024-03-05T17:56:22.548Z,6.80
2024-03-05T18:00:28.841Z,6.70
2024-03-05T18:04:33.445Z,6.70
2024-03-05T18:08:38.098Z,6.70
2024-03-05T18:12:42.608Z,6.80
2024-03-05T18:16:45.974Z,6.80
2024-03-05T18:20:50.245Z,6.70
2024-03-05T18:24:55.585Z,6.70
2024-03-05T18:29:04.680Z,6.70
2024-03-05T18:33:09.468Z,6.70
2024-03-05T18:37:13.438Z,6.70
2024-03-05T18:41:43.965Z,6.60
2024-03-05T18:45:47.225Z,6.60
2024-03-05T18:49:51.831Z,6.60
2024-03-05T18:53:56.102Z,6.60
2024-03-05T18:58:00.778Z,6.60
2024-03-05T19:02:04.145Z,6.60
2024-03-05T19:06:08.077Z,6.60
2024-03-05T19:10:13.507Z,6.60
2024-03-05T19:14:18.777Z,6.60
2024-03-05T19:18:22.620Z,6.60
2024-03-05T19:23:17.547Z,6.60
2024-03-05T19:27:20.910Z,6.60
2024-03-05T19:31:25.693Z,6.60
2024-03-05T19:35:30.008Z,6.60
2024-03-05T19:39:33.294Z,6.60
2024-03-05T19:43:38.109Z,6.60
2024-03-05T19:48:10.383Z,6.60
2024-03-05T19:52:13.949Z,6.60
2024-03-05T19:56:22.711Z,6.60
2024-03-05T20:00:52.440Z,6.60
2024-03-05T20:04:57.229Z,6.50
2024-03-05T20:09:00.896Z,6.50
2024-03-05T20:13:05.392Z,6.60
2024-03-05T20:17:09.788Z,6.60
2024-03-05T20:21:15.912Z,6.60
2024-03-05T20:25:22.794Z,6.60
2024-03-05T20:29:28.480Z,6.60
2024-03-05T20:33:33.335Z,6.60
2024-03-05T20:37:38.162Z,6.60
2024-03-05T20:41:44.209Z,6.60
2024-03-05T20:45:47.496Z,6.60
2024-03-05T20:49:50.792Z,6.60
2024-03-05T20:53:57.902Z,6.60
2024-03-05T20:58:01.455Z,6.60
2024-03-05T21:02:10.637Z,6.60
2024-03-05T21:06:44.183Z,6.60
2024-03-05T21:10:48.997Z,6.60
2024-03-05T21:15:18.288Z,6.60
2024-03-05T21:19:46.440Z,6.60
2024-03-05T21:23:55.778Z,6.60
2024-03-05T21:28:03.974Z,6.60
2024-03-05T21:32:08.085Z,6.60
2024-03-05T21:36:11.523Z,6.60
2024-03-05T21:40:16.143Z,6.60
2024-03-05T21:44:45.625Z,6.60
2024-03-05T21:48:50.959Z,6.50
2024-03-05T21:52:56.309Z,6.50
2024-03-05T21:57:04.770Z,6.50
2024-03-05T22:01:12.593Z,6.40
2024-03-05T22:05:18.655Z,6.40
2024-03-05T22:09:22.032Z,6.40
2024-03-05T22:13:27.757Z,6.30
2024-03-05T22:17:36.514Z,6.40
2024-03-05T22:21:40.413Z,6.30
2024-03-05T22:25:47.573Z,6.20
2024-03-05T22:29:51.660Z,6.20
2024-03-05T22:33:56.508Z,6.20
2024-03-05T22:38:00.694Z,6.20
2024-03-05T22:42:05.853Z,6.20
2024-03-05T22:46:09.580Z,6.20
2024-03-05T22:50:14.970Z,6.10
2024-03-05T22:54:18.828Z,6.10
2024-03-05T22:58:23.421Z,6.10
2024-03-05T23:02:27.609Z,6.10
2024-03-05T23:06:33.178Z,6.00
2024-03-05T23:10:38.712Z,6.00
2024-03-05T23:14:44.123Z,6.00
2024-03-05T23:18:48.442Z,6.00
2024-03-05T23:22:53.644Z,5.90
2024-03-05T23:26:57.201Z,5.90
2024-03-05T23:31:00.661Z,5.90
2024-03-05T23:35:04.173Z,5.90
2024-03-05T23:39:11.114Z,5.90
2024-03-05T23:43:14.413Z,5.90
2024-03-05T23:47:17.739Z,5.80
2024-03-05T23:51:24.969Z,5.80
2024-03-05T23:55:29.950Z,5.80
2024-03-05T23:59:34.345Z,5.80
